Nevada City, CA (95959)

12:00 AM PDT on September 21, 2014 (GMT -0700)
Willow Valley Lodge | Change Station
CLOSE
Current Station
Personal Weather Station
Location: Nevada City, CA
Elevation: 2605 ft
Nearby Weather Stations

Elev 2605 ft 39.27 °N, 121.01 °W | Updated 2 minutes ago

Partly Cloudy
Partly Cloudy
65.1 °F
Feels Like 65.1 °F
N
0.0
Wind Variable Wind from WSW

Today
High -- | Low -- °F
--% Chance of Precip.
Yesterday
High -- | Low -- °F
Precip. -- in
6:50 AM 7:02 PM
Waning Crescent, 8% visible
Pressure 30.02 in
Visibility 5.0 miles
Clouds Scattered Clouds 12000 ft
Dew Point 57 °F
Humidity 75%
Rainfall 0.00 in
Snow Depth Not available.
UV 0 out of 12
Pollen 5.60 out of 12
Ozone Good
PM2.5 Moderate
Flu Activity Not available.
METAR KGOO 210640Z AUTO 10007KT 5SM SCT120 23/09 A3002 RMK AO1

More Conditions Fewer Conditions

Pressure 30.02 in
Visibility 5.0 miles
Clouds Scattered Clouds 12000 ft
Dew Point 57 °F
Humidity 75%
Rainfall 0.00 in
Snow Depth Not available.
UV 0 out of 12
Pollen 5.60 out of 12
Ozone Good
PM2.5 Moderate
Flu Activity Not available.
METAR KGOO 210640Z AUTO 10007KT 5SM SCT120 23/09 A3002 RMK AO1

More Conditions Fewer Conditions

Nowcast | as of 11:37 PM PDT on September 20, 2014

Isolated showers and thunderstorms rotating around an upper low pressure system will be moving through the northern Sierra...motherlode...southern Sacramento and northern San Joaquin valleys and Delta over the next couple of hours. Cloud to ground lightning will be possible in any of these areas through the next few hours.

×

10-Day Weather Forecast

Almanac

Astronomy

Sep. 21, 2014 Rise Set
Actual Time 6:50 AM PDT 7:02 PM PDT
Civil Twilight 6:24 AM PDT 7:29 PM PDT
Nautical Twilight 5:52 AM PDT 8:00 PM PDT
Astronomical Twilight 5:20 AM PDT 8:32 PM PDT
Moon 4:30 AM PDT 5:41 PM PDT
Length of Visible Light 13h 05m
Length of Day
12h 11m
Tomorrow will be 2m 33s shorter.
Waning Crescent, 8% of the Moon is Illuminated
Today
Waning Crescent
Sep 24
New
Oct 1
First Quarter
Oct 8
Full
Oct 15
Last Quarter

Community

WunderPhotos

Upload Photos

1,755,101 photos uploaded!

Nearby

Air Quality

  Air Quality AQ Index Pollutant
Yesterday Moderate
PM2.5
Yesterday Good
OZONE
Current Moderate
PM2.5
Current Good
OZONE

Snow Depth

Station Depth Elevation
Heavenly Valley 0 in 8850 ft
Leavitt Lake 0 in 9400 ft
Spratt Creek 1 in 6200 ft
Tahoe City Cross 0 in 6750 ft
Monitor Pass 0 in 8350 ft

Earthquake Activity

City Distance Mag. Time & Date
Cloverdale, California 104 miles 2.5 9:15 PM PDT
2014-09-20
Livermore, California 116 miles 2.6 3:37 AM PDT
2014-09-19
The Geysers, California 97 miles 2.5 11:29 PM PDT
2014-09-17
Minimum magnitude displayed is 2.5.

Coastal Water Temperatures

Place Temperature
No Stations Reporting

Nearby Weather Stations